sensor_id;sensor_type;location;lat;lon;timestamp;P1;durP1;ratioP1;P2;durP2;ratioP2
77705;SDS011;66874;45.274;5.880;2023-07-22T00:00:09;4.85;;;2.00;;
77705;SDS011;66874;45.274;5.880;2023-07-22T00:02:40;4.05;;;2.20;;
77705;SDS011;66874;45.274;5.880;2023-07-22T00:05:06;2.88;;;2.40;;
77705;SDS011;66874;45.274;5.880;2023-07-22T00:07:32;5.13;;;2.50;;
77705;SDS011;66874;45.274;5.880;2023-07-22T00:09:58;4.60;;;2.00;;
77705;SDS011;66874;45.274;5.880;2023-07-22T00:12:24;3.78;;;1.88;;
77705;SDS011;66874;45.274;5.880;2023-07-22T00:14:51;6.68;;;2.17;;
77705;SDS011;66874;45.274;5.880;2023-07-22T00:17:18;3.17;;;2.20;;
77705;SDS011;66874;45.274;5.880;2023-07-22T00:19:44;5.03;;;2.10;;
77705;SDS011;66874;45.274;5.880;2023-07-22T00:22:09;3.22;;;2.00;;
77705;SDS011;66874;45.274;5.880;2023-07-22T00:24:34;3.40;;;1.98;;
77705;SDS011;66874;45.274;5.880;2023-07-22T00:27:00;5.03;;;2.38;;
77705;SDS011;66874;45.274;5.880;2023-07-22T00:29:25;2.60;;;1.90;;
77705;SDS011;66874;45.274;5.880;2023-07-22T00:31:51;3.00;;;2.13;;
77705;SDS011;66874;45.274;5.880;2023-07-22T00:34:16;3.45;;;2.10;;
77705;SDS011;66874;45.274;5.880;2023-07-22T00:36:42;2.53;;;2.00;;
77705;SDS011;66874;45.274;5.880;2023-07-22T00:39:07;2.90;;;2.00;;
77705;SDS011;66874;45.274;5.880;2023-07-22T00:41:33;2.63;;;1.70;;
77705;SDS011;66874;45.274;5.880;2023-07-22T00:43:58;4.80;;;2.35;;
77705;SDS011;66874;45.274;5.880;2023-07-22T00:46:23;5.10;;;2.13;;
77705;SDS011;66874;45.274;5.880;2023-07-22T00:48:49;3.13;;;2.17;;
77705;SDS011;66874;45.274;5.880;2023-07-22T00:51:15;4.32;;;2.33;;
77705;SDS011;66874;45.274;5.880;2023-07-22T00:53:41;6.28;;;2.45;;
77705;SDS011;66874;45.274;5.880;2023-07-22T00:56:06;3.70;;;2.30;;
77705;SDS011;66874;45.274;5.880;2023-07-22T00:58:32;5.57;;;2.25;;
77705;SDS011;66874;45.274;5.880;2023-07-22T01:00:59;3.92;;;1.60;;
77705;SDS011;66874;45.274;5.880;2023-07-22T01:03:24;4.10;;;2.10;;
77705;SDS011;66874;45.274;5.880;2023-07-22T01:05:50;3.58;;;2.25;;
77705;SDS011;66874;45.274;5.880;2023-07-22T01:08:18;3.00;;;1.90;;
77705;SDS011;66874;45.274;5.880;2023-07-22T01:10:43;3.60;;;2.00;;
77705;SDS011;66874;45.274;5.880;2023-07-22T01:13:09;4.70;;;2.13;;
77705;SDS011;66874;45.274;5.880;2023-07-22T01:15:34;6.57;;;2.35;;
77705;SDS011;66874;45.274;5.880;2023-07-22T01:18:00;5.82;;;2.00;;
77705;SDS011;66874;45.274;5.880;2023-07-22T01:20:28;2.42;;;1.85;;
77705;SDS011;66874;45.274;5.880;2023-07-22T01:22:54;2.63;;;2.05;;
77705;SDS011;66874;45.274;5.880;2023-07-22T01:25:20;3.83;;;2.63;;
77705;SDS011;66874;45.274;5.880;2023-07-22T01:27:47;6.20;;;2.28;;
77705;SDS011;66874;45.274;5.880;2023-07-22T01:30:13;7.32;;;2.90;;
77705;SDS011;66874;45.274;5.880;2023-07-22T01:32:39;3.83;;;2.30;;
77705;SDS011;66874;45.274;5.880;2023-07-22T01:35:05;6.35;;;2.13;;
77705;SDS011;66874;45.274;5.880;2023-07-22T01:37:32;4.15;;;2.15;;
77705;SDS011;66874;45.274;5.880;2023-07-22T01:39:58;5.15;;;2.25;;
77705;SDS011;66874;45.274;5.880;2023-07-22T01:42:23;4.80;;;2.45;;
77705;SDS011;66874;45.274;5.880;2023-07-22T01:44:49;4.75;;;2.45;;
77705;SDS011;66874;45.274;5.880;2023-07-22T01:47:14;5.68;;;2.80;;
77705;SDS011;66874;45.274;5.880;2023-07-22T01:49:39;6.57;;;3.10;;
77705;SDS011;66874;45.274;5.880;2023-07-22T01:52:05;3.80;;;2.67;;
77705;SDS011;66874;45.274;5.880;2023-07-22T01:54:31;9.07;;;2.90;;
77705;SDS011;66874;45.274;5.880;2023-07-22T01:56:56;11.30;;;2.83;;
77705;SDS011;66874;45.274;5.880;2023-07-22T01:59:21;4.90;;;2.45;;
77705;SDS011;66874;45.274;5.880;2023-07-22T02:01:47;4.65;;;2.03;;
77705;SDS011;66874;45.274;5.880;2023-07-22T02:04:12;5.20;;;2.30;;
77705;SDS011;66874;45.274;5.880;2023-07-22T02:06:38;9.68;;;2.53;;
77705;SDS011;66874;45.274;5.880;2023-07-22T02:09:03;3.72;;;2.20;;
77705;SDS011;66874;45.274;5.880;2023-07-22T02:11:34;5.03;;;2.53;;
77705;SDS011;66874;45.274;5.880;2023-07-22T02:14:00;3.13;;;2.13;;
77705;SDS011;66874;45.274;5.880;2023-07-22T02:16:26;4.53;;;2.35;;
77705;SDS011;66874;45.274;5.880;2023-07-22T02:18:51;4.25;;;2.55;;
77705;SDS011;66874;45.274;5.880;2023-07-22T02:21:16;3.58;;;2.03;;
77705;SDS011;66874;45.274;5.880;2023-07-22T02:23:42;3.78;;;2.38;;
77705;SDS011;66874;45.274;5.880;2023-07-22T02:26:07;7.50;;;2.20;;
77705;SDS011;66874;45.274;5.880;2023-07-22T02:28:33;7.40;;;2.83;;
77705;SDS011;66874;45.274;5.880;2023-07-22T02:31:00;5.90;;;2.15;;
77705;SDS011;66874;45.274;5.880;2023-07-22T02:33:32;4.78;;;2.45;;
77705;SDS011;66874;45.274;5.880;2023-07-22T02:35:57;5.05;;;2.15;;
77705;SDS011;66874;45.274;5.880;2023-07-22T02:38:23;4.28;;;2.10;;
77705;SDS011;66874;45.274;5.880;2023-07-22T02:40:48;3.90;;;2.30;;
77705;SDS011;66874;45.274;5.880;2023-07-22T02:43:13;4.70;;;2.38;;
77705;SDS011;66874;45.274;5.880;2023-07-22T02:45:40;5.90;;;2.33;;
77705;SDS011;66874;45.274;5.880;2023-07-22T02:48:06;6.15;;;2.30;;
77705;SDS011;66874;45.274;5.880;2023-07-22T02:50:31;5.03;;;2.75;;
77705;SDS011;66874;45.274;5.880;2023-07-22T02:52:56;3.97;;;2.20;;
77705;SDS011;66874;45.274;5.880;2023-07-22T02:55:22;7.30;;;2.50;;
77705;SDS011;66874;45.274;5.880;2023-07-22T02:57:48;5.72;;;2.08;;
77705;SDS011;66874;45.274;5.880;2023-07-22T03:00:14;6.00;;;2.47;;
77705;SDS011;66874;45.274;5.880;2023-07-22T03:02:51;4.63;;;2.58;;
77705;SDS011;66874;45.274;5.880;2023-07-22T03:05:25;4.63;;;2.40;;
77705;SDS011;66874;45.274;5.880;2023-07-22T03:10:18;5.28;;;2.45;;
77705;SDS011;66874;45.274;5.880;2023-07-22T03:12:43;3.30;;;1.98;;
77705;SDS011;66874;45.274;5.880;2023-07-22T03:15:09;4.65;;;2.30;;
77705;SDS011;66874;45.274;5.880;2023-07-22T03:17:35;5.63;;;2.70;;
77705;SDS011;66874;45.274;5.880;2023-07-22T03:20:02;7.22;;;2.55;;
77705;SDS011;66874;45.274;5.880;2023-07-22T03:22:34;4.20;;;2.80;;
77705;SDS011;66874;45.274;5.880;2023-07-22T03:24:59;6.30;;;2.20;;
77705;SDS011;66874;45.274;5.880;2023-07-22T03:27:25;4.72;;;2.85;;
77705;SDS011;66874;45.274;5.880;2023-07-22T03:29:50;6.13;;;2.60;;
77705;SDS011;66874;45.274;5.880;2023-07-22T03:32:15;2.47;;;2.00;;
77705;SDS011;66874;45.274;5.880;2023-07-22T03:34:41;5.50;;;2.67;;
77705;SDS011;66874;45.274;5.880;2023-07-22T03:37:06;6.10;;;2.33;;
77705;SDS011;66874;45.274;5.880;2023-07-22T03:39:32;5.10;;;2.33;;
77705;SDS011;66874;45.274;5.880;2023-07-22T03:41:57;10.20;;;3.17;;
77705;SDS011;66874;45.274;5.880;2023-07-22T03:44:22;4.10;;;2.60;;
77705;SDS011;66874;45.274;5.880;2023-07-22T03:46:48;3.55;;;2.38;;
77705;SDS011;66874;45.274;5.880;2023-07-22T03:49:13;4.10;;;2.65;;
77705;SDS011;66874;45.274;5.880;2023-07-22T03:51:39;3.08;;;2.22;;
77705;SDS011;66874;45.274;5.880;2023-07-22T03:54:04;4.28;;;2.40;;
77705;SDS011;66874;45.274;5.880;2023-07-22T03:56:30;4.35;;;2.60;;
77705;SDS011;66874;45.274;5.880;2023-07-22T03:58:55;3.90;;;2.25;;
77705;SDS011;66874;45.274;5.880;2023-07-22T04:01:20;3.00;;;2.20;;
77705;SDS011;66874;45.274;5.880;2023-07-22T04:03:46;4.18;;;2.60;;
77705;SDS011;66874;45.274;5.880;2023-07-22T04:06:11;5.97;;;2.42;;
77705;SDS011;66874;45.274;5.880;2023-07-22T04:08:37;4.30;;;2.55;;
77705;SDS011;66874;45.274;5.880;2023-07-22T04:11:02;3.97;;;2.55;;
77705;SDS011;66874;45.274;5.880;2023-07-22T04:13:28;3.33;;;2.33;;
77705;SDS011;66874;45.274;5.880;2023-07-22T04:15:54;4.30;;;2.33;;
77705;SDS011;66874;45.274;5.880;2023-07-22T04:18:20;5.20;;;2.88;;
77705;SDS011;66874;45.274;5.880;2023-07-22T04:20:46;3.95;;;2.55;;
77705;SDS011;66874;45.274;5.880;2023-07-22T04:23:13;7.68;;;3.20;;
77705;SDS011;66874;45.274;5.880;2023-07-22T04:25:42;5.03;;;2.60;;
77705;SDS011;66874;45.274;5.880;2023-07-22T04:28:08;7.05;;;2.95;;
77705;SDS011;66874;45.274;5.880;2023-07-22T04:30:34;8.27;;;2.45;;
77705;SDS011;66874;45.274;5.880;2023-07-22T04:33:00;4.35;;;2.60;;
77705;SDS011;66874;45.274;5.880;2023-07-22T04:35:26;4.13;;;2.60;;
77705;SDS011;66874;45.274;5.880;2023-07-22T04:37:51;5.40;;;2.50;;
77705;SDS011;66874;45.274;5.880;2023-07-22T04:40:17;4.47;;;2.53;;
77705;SDS011;66874;45.274;5.880;2023-07-22T04:42:43;5.07;;;3.10;;
77705;SDS011;66874;45.274;5.880;2023-07-22T04:45:09;6.65;;;2.78;;
77705;SDS011;66874;45.274;5.880;2023-07-22T04:47:36;5.27;;;2.60;;
77705;SDS011;66874;45.274;5.880;2023-07-22T04:50:02;4.07;;;2.33;;
77705;SDS011;66874;45.274;5.880;2023-07-22T04:52:29;4.70;;;2.72;;
77705;SDS011;66874;45.274;5.880;2023-07-22T04:54:54;3.72;;;2.40;;
77705;SDS011;66874;45.274;5.880;2023-07-22T04:57:20;4.20;;;2.72;;
77705;SDS011;66874;45.274;5.880;2023-07-22T04:59:46;4.15;;;2.60;;
77705;SDS011;66874;45.274;5.880;2023-07-22T05:02:11;4.60;;;2.80;;
77705;SDS011;66874;45.274;5.880;2023-07-22T05:04:37;4.60;;;2.72;;
77705;SDS011;66874;45.274;5.880;2023-07-22T05:07:03;5.70;;;2.47;;
77705;SDS011;66874;45.274;5.880;2023-07-22T05:09:28;4.50;;;2.25;;
77705;SDS011;66874;45.274;5.880;2023-07-22T05:11:53;5.47;;;2.83;;
77705;SDS011;66874;45.274;5.880;2023-07-22T05:14:19;3.70;;;2.42;;
77705;SDS011;66874;45.274;5.880;2023-07-22T05:16:45;5.10;;;2.65;;
77705;SDS011;66874;45.274;5.880;2023-07-22T05:19:10;4.80;;;2.15;;
77705;SDS011;66874;45.274;5.880;2023-07-22T05:21:36;5.10;;;2.47;;
77705;SDS011;66874;45.274;5.880;2023-07-22T05:24:01;3.47;;;2.60;;
77705;SDS011;66874;45.274;5.880;2023-07-22T05:26:26;4.15;;;2.75;;
77705;SDS011;66874;45.274;5.880;2023-07-22T05:28:52;3.97;;;2.50;;
77705;SDS011;66874;45.274;5.880;2023-07-22T05:31:17;5.80;;;2.75;;
77705;SDS011;66874;45.274;5.880;2023-07-22T05:33:43;4.68;;;2.80;;
77705;SDS011;66874;45.274;5.880;2023-07-22T05:36:09;3.97;;;2.60;;
77705;SDS011;66874;45.274;5.880;2023-07-22T05:38:34;4.03;;;2.72;;
77705;SDS011;66874;45.274;5.880;2023-07-22T05:40:59;6.10;;;3.22;;
77705;SDS011;66874;45.274;5.880;2023-07-22T05:43:25;3.88;;;2.58;;
77705;SDS011;66874;45.274;5.880;2023-07-22T05:45:50;4.45;;;2.60;;
77705;SDS011;66874;45.274;5.880;2023-07-22T05:48:16;4.35;;;3.10;;
77705;SDS011;66874;45.274;5.880;2023-07-22T05:50:41;5.85;;;3.13;;
77705;SDS011;66874;45.274;5.880;2023-07-22T05:53:07;7.90;;;2.75;;
77705;SDS011;66874;45.274;5.880;2023-07-22T05:55:32;4.68;;;2.47;;
77705;SDS011;66874;45.274;5.880;2023-07-22T05:57:58;4.03;;;2.60;;
77705;SDS011;66874;45.274;5.880;2023-07-22T06:00:24;7.90;;;3.20;;
77705;SDS011;66874;45.274;5.880;2023-07-22T06:02:50;9.05;;;3.00;;
77705;SDS011;66874;45.274;5.880;2023-07-22T06:05:15;4.95;;;2.47;;
77705;SDS011;66874;45.274;5.880;2023-07-22T06:07:41;5.13;;;2.63;;
77705;SDS011;66874;45.274;5.880;2023-07-22T06:10:06;6.28;;;2.80;;
77705;SDS011;66874;45.274;5.880;2023-07-22T06:12:33;5.30;;;2.83;;
77705;SDS011;66874;45.274;5.880;2023-07-22T06:14:58;3.92;;;2.30;;
77705;SDS011;66874;45.274;5.880;2023-07-22T06:17:23;8.25;;;2.97;;
77705;SDS011;66874;45.274;5.880;2023-07-22T06:19:49;5.05;;;2.88;;
77705;SDS011;66874;45.274;5.880;2023-07-22T06:22:14;5.20;;;2.83;;
77705;SDS011;66874;45.274;5.880;2023-07-22T06:24:40;4.45;;;2.88;;
77705;SDS011;66874;45.274;5.880;2023-07-22T06:27:05;4.72;;;2.70;;
77705;SDS011;66874;45.274;5.880;2023-07-22T06:29:30;6.40;;;2.38;;
77705;SDS011;66874;45.274;5.880;2023-07-22T06:31:56;5.97;;;2.60;;
77705;SDS011;66874;45.274;5.880;2023-07-22T06:34:21;6.82;;;2.63;;
77705;SDS011;66874;45.274;5.880;2023-07-22T06:36:47;4.60;;;3.15;;
77705;SDS011;66874;45.274;5.880;2023-07-22T06:39:13;6.30;;;2.88;;
77705;SDS011;66874;45.274;5.880;2023-07-22T06:41:38;5.25;;;2.65;;
77705;SDS011;66874;45.274;5.880;2023-07-22T06:44:03;9.52;;;2.97;;
77705;SDS011;66874;45.274;5.880;2023-07-22T06:46:29;5.22;;;2.85;;
77705;SDS011;66874;45.274;5.880;2023-07-22T06:48:54;6.70;;;3.08;;
77705;SDS011;66874;45.274;5.880;2023-07-22T06:51:19;5.65;;;3.03;;
77705;SDS011;66874;45.274;5.880;2023-07-22T06:53:45;3.60;;;2.60;;
77705;SDS011;66874;45.274;5.880;2023-07-22T06:56:11;6.35;;;2.75;;
77705;SDS011;66874;45.274;5.880;2023-07-22T06:58:36;4.35;;;2.75;;
77705;SDS011;66874;45.274;5.880;2023-07-22T07:01:02;4.72;;;2.75;;
77705;SDS011;66874;45.274;5.880;2023-07-22T07:03:27;4.32;;;2.90;;
77705;SDS011;66874;45.274;5.880;2023-07-22T07:05:56;7.55;;;2.97;;
77705;SDS011;66874;45.274;5.880;2023-07-22T07:08:22;4.55;;;2.97;;
77705;SDS011;66874;45.274;5.880;2023-07-22T07:10:49;3.10;;;2.50;;
77705;SDS011;66874;45.274;5.880;2023-07-22T07:13:15;5.60;;;2.83;;
77705;SDS011;66874;45.274;5.880;2023-07-22T07:15:40;3.97;;;2.92;;
77705;SDS011;66874;45.274;5.880;2023-07-22T07:18:06;5.78;;;3.25;;
77705;SDS011;66874;45.274;5.880;2023-07-22T07:20:31;6.25;;;3.05;;
77705;SDS011;66874;45.274;5.880;2023-07-22T07:22:56;7.18;;;3.58;;
77705;SDS011;66874;45.274;5.880;2023-07-22T07:25:22;6.07;;;2.72;;
77705;SDS011;66874;45.274;5.880;2023-07-22T07:27:47;6.10;;;2.90;;
77705;SDS011;66874;45.274;5.880;2023-07-22T07:30:13;6.05;;;3.40;;
77705;SDS011;66874;45.274;5.880;2023-07-22T07:32:38;4.07;;;2.90;;
77705;SDS011;66874;45.274;5.880;2023-07-22T07:35:04;8.57;;;3.03;;
77705;SDS011;66874;45.274;5.880;2023-07-22T07:37:31;4.30;;;2.70;;
77705;SDS011;66874;45.274;5.880;2023-07-22T07:44:50;4.85;;;3.15;;
77705;SDS011;66874;45.274;5.880;2023-07-22T07:47:16;5.20;;;3.00;;
77705;SDS011;66874;45.274;5.880;2023-07-22T07:49:41;4.47;;;2.65;;
77705;SDS011;66874;45.274;5.880;2023-07-22T07:52:06;7.03;;;2.85;;
77705;SDS011;66874;45.274;5.880;2023-07-22T07:54:32;4.57;;;2.97;;
77705;SDS011;66874;45.274;5.880;2023-07-22T07:56:57;7.18;;;2.63;;
77705;SDS011;66874;45.274;5.880;2023-07-22T07:59:22;7.13;;;3.13;;
77705;SDS011;66874;45.274;5.880;2023-07-22T08:01:48;4.13;;;2.83;;
77705;SDS011;66874;45.274;5.880;2023-07-22T08:04:13;5.60;;;2.40;;
77705;SDS011;66874;45.274;5.880;2023-07-22T08:06:38;7.30;;;2.60;;
77705;SDS011;66874;45.274;5.880;2023-07-22T08:09:04;5.72;;;2.25;;
77705;SDS011;66874;45.274;5.880;2023-07-22T08:11:30;6.13;;;2.65;;
77705;SDS011;66874;45.274;5.880;2023-07-22T08:13:56;6.20;;;2.50;;
77705;SDS011;66874;45.274;5.880;2023-07-22T08:16:21;5.13;;;2.95;;
77705;SDS011;66874;45.274;5.880;2023-07-22T08:18:46;5.95;;;3.15;;
77705;SDS011;66874;45.274;5.880;2023-07-22T08:21:12;3.88;;;2.70;;
77705;SDS011;66874;45.274;5.880;2023-07-22T08:23:37;7.97;;;3.20;;
77705;SDS011;66874;45.274;5.880;2023-07-22T08:26:03;7.07;;;2.95;;
77705;SDS011;66874;45.274;5.880;2023-07-22T08:28:32;5.22;;;2.63;;
77705;SDS011;66874;45.274;5.880;2023-07-22T08:30:58;5.05;;;2.92;;
77705;SDS011;66874;45.274;5.880;2023-07-22T08:33:25;7.57;;;2.55;;
77705;SDS011;66874;45.274;5.880;2023-07-22T08:35:51;6.15;;;2.35;;
77705;SDS011;66874;45.274;5.880;2023-07-22T08:38:17;6.10;;;2.72;;
77705;SDS011;66874;45.274;5.880;2023-07-22T08:40:42;4.90;;;2.85;;
77705;SDS011;66874;45.274;5.880;2023-07-22T08:43:08;4.10;;;2.55;;
77705;SDS011;66874;45.274;5.880;2023-07-22T08:45:35;3.90;;;2.40;;
77705;SDS011;66874;45.274;5.880;2023-07-22T08:48:03;3.67;;;2.30;;
77705;SDS011;66874;45.274;5.880;2023-07-22T08:50:33;4.32;;;2.35;;
77705;SDS011;66874;45.274;5.880;2023-07-22T08:53:06;8.50;;;3.13;;
77705;SDS011;66874;45.274;5.880;2023-07-22T08:55:33;3.85;;;2.60;;
77705;SDS011;66874;45.274;5.880;2023-07-22T08:57:59;3.85;;;2.42;;
77705;SDS011;66874;45.274;5.880;2023-07-22T09:00:26;4.00;;;2.58;;
77705;SDS011;66874;45.274;5.880;2023-07-22T09:02:52;6.25;;;2.20;;
77705;SDS011;66874;45.274;5.880;2023-07-22T09:05:18;4.35;;;2.83;;
77705;SDS011;66874;45.274;5.880;2023-07-22T09:07:43;6.25;;;2.53;;
77705;SDS011;66874;45.274;5.880;2023-07-22T09:10:09;3.45;;;2.25;;
77705;SDS011;66874;45.274;5.880;2023-07-22T09:12:35;8.25;;;2.10;;
77705;SDS011;66874;45.274;5.880;2023-07-22T09:15:07;3.15;;;2.25;;
77705;SDS011;66874;45.274;5.880;2023-07-22T09:17:34;4.80;;;2.60;;
77705;SDS011;66874;45.274;5.880;2023-07-22T09:20:01;5.32;;;2.60;;
77705;SDS011;66874;45.274;5.880;2023-07-22T09:22:28;3.10;;;2.10;;
77705;SDS011;66874;45.274;5.880;2023-07-22T09:24:59;3.70;;;2.40;;
77705;SDS011;66874;45.274;5.880;2023-07-22T09:27:39;2.72;;;2.08;;
77705;SDS011;66874;45.274;5.880;2023-07-22T09:30:17;4.63;;;2.60;;
77705;SDS011;66874;45.274;5.880;2023-07-22T09:32:45;5.03;;;2.10;;
77705;SDS011;66874;45.274;5.880;2023-07-22T09:35:11;4.03;;;2.13;;
77705;SDS011;66874;45.274;5.880;2023-07-22T09:37:37;2.80;;;1.75;;
77705;SDS011;66874;45.274;5.880;2023-07-22T09:40:13;6.37;;;2.30;;
77705;SDS011;66874;45.274;5.880;2023-07-22T09:42:48;5.00;;;2.00;;
77705;SDS011;66874;45.274;5.880;2023-07-22T09:45:15;5.93;;;2.08;;
77705;SDS011;66874;45.274;5.880;2023-07-22T09:47:43;3.55;;;2.42;;
77705;SDS011;66874;45.274;5.880;2023-07-22T09:50:13;5.97;;;2.17;;
77705;SDS011;66874;45.274;5.880;2023-07-22T09:53:02;3.13;;;1.95;;
77705;SDS011;66874;45.274;5.880;2023-07-22T09:55:28;4.60;;;2.45;;
77705;SDS011;66874;45.274;5.880;2023-07-22T09:58:02;3.33;;;2.10;;
77705;SDS011;66874;45.274;5.880;2023-07-22T10:00:29;3.25;;;2.10;;
77705;SDS011;66874;45.274;5.880;2023-07-22T10:02:56;4.13;;;2.33;;
77705;SDS011;66874;45.274;5.880;2023-07-22T10:05:24;2.58;;;1.60;;
77705;SDS011;66874;45.274;5.880;2023-07-22T10:12:44;6.20;;;1.95;;
77705;SDS011;66874;45.274;5.880;2023-07-22T10:15:11;7.78;;;2.40;;
77705;SDS011;66874;45.274;5.880;2023-07-22T10:17:39;5.20;;;3.13;;
77705;SDS011;66874;45.274;5.880;2023-07-22T10:20:05;3.17;;;2.45;;
77705;SDS011;66874;45.274;5.880;2023-07-22T10:22:34;4.10;;;1.90;;
77705;SDS011;66874;45.274;5.880;2023-07-22T10:25:02;3.63;;;2.00;;
77705;SDS011;66874;45.274;5.880;2023-07-22T10:27:30;3.35;;;2.15;;
77705;SDS011;66874;45.274;5.880;2023-07-22T10:29:56;4.35;;;2.17;;
77705;SDS011;66874;45.274;5.880;2023-07-22T10:32:21;3.33;;;1.88;;
77705;SDS011;66874;45.274;5.880;2023-07-22T10:34:47;5.65;;;1.98;;
77705;SDS011;66874;45.274;5.880;2023-07-22T10:37:12;5.88;;;2.13;;
77705;SDS011;66874;45.274;5.880;2023-07-22T10:39:37;3.45;;;2.08;;
77705;SDS011;66874;45.274;5.880;2023-07-22T10:42:06;2.50;;;1.67;;
77705;SDS011;66874;45.274;5.880;2023-07-22T10:44:40;3.22;;;2.20;;
77705;SDS011;66874;45.274;5.880;2023-07-22T10:47:07;3.15;;;2.20;;
77705;SDS011;66874;45.274;5.880;2023-07-22T10:49:52;2.63;;;1.75;;
77705;SDS011;66874;45.274;5.880;2023-07-22T10:52:37;2.45;;;1.83;;
77705;SDS011;66874;45.274;5.880;2023-07-22T10:55:03;4.50;;;2.00;;
77705;SDS011;66874;45.274;5.880;2023-07-22T10:57:29;2.83;;;1.85;;
77705;SDS011;66874;45.274;5.880;2023-07-22T10:59:55;3.42;;;1.67;;
77705;SDS011;66874;45.274;5.880;2023-07-22T11:02:25;6.20;;;1.80;;
77705;SDS011;66874;45.274;5.880;2023-07-22T11:04:51;3.65;;;2.10;;
77705;SDS011;66874;45.274;5.880;2023-07-22T11:07:28;4.38;;;1.95;;
77705;SDS011;66874;45.274;5.880;2023-07-22T11:09:55;3.38;;;2.10;;
77705;SDS011;66874;45.274;5.880;2023-07-22T11:12:20;3.25;;;2.05;;
77705;SDS011;66874;45.274;5.880;2023-07-22T11:14:51;4.70;;;1.92;;
77705;SDS011;66874;45.274;5.880;2023-07-22T11:17:18;3.72;;;1.90;;
77705;SDS011;66874;45.274;5.880;2023-07-22T11:19:53;8.15;;;2.22;;
77705;SDS011;66874;45.274;5.880;2023-07-22T11:22:20;2.22;;;1.60;;
77705;SDS011;66874;45.274;5.880;2023-07-22T11:24:45;7.53;;;2.50;;
77705;SDS011;66874;45.274;5.880;2023-07-22T11:27:11;2.60;;;1.90;;
77705;SDS011;66874;45.274;5.880;2023-07-22T11:29:37;6.28;;;2.20;;
77705;SDS011;66874;45.274;5.880;2023-07-22T11:32:03;3.87;;;2.03;;
77705;SDS011;66874;45.274;5.880;2023-07-22T11:34:29;4.90;;;2.22;;
77705;SDS011;66874;45.274;5.880;2023-07-22T11:36:55;4.27;;;2.00;;
77705;SDS011;66874;45.274;5.880;2023-07-22T11:39:23;3.63;;;1.90;;
77705;SDS011;66874;45.274;5.880;2023-07-22T11:41:49;3.58;;;2.05;;
77705;SDS011;66874;45.274;5.880;2023-07-22T11:44:16;2.30;;;1.80;;
77705;SDS011;66874;45.274;5.880;2023-07-22T11:49:29;3.15;;;1.95;;
77705;SDS011;66874;45.274;5.880;2023-07-22T11:54:24;2.72;;;1.92;;
77705;SDS011;66874;45.274;5.880;2023-07-22T11:56:50;4.70;;;1.80;;
77705;SDS011;66874;45.274;5.880;2023-07-22T11:59:15;3.60;;;2.00;;
77705;SDS011;66874;45.274;5.880;2023-07-22T12:01:43;5.63;;;2.30;;
77705;SDS011;66874;45.274;5.880;2023-07-22T12:04:10;2.20;;;1.90;;
77705;SDS011;66874;45.274;5.880;2023-07-22T12:06:36;3.58;;;2.15;;
77705;SDS011;66874;45.274;5.880;2023-07-22T12:09:02;5.27;;;2.33;;
77705;SDS011;66874;45.274;5.880;2023-07-22T12:11:28;2.38;;;2.05;;
77705;SDS011;66874;45.274;5.880;2023-07-22T12:14:11;3.45;;;2.30;;
77705;SDS011;66874;45.274;5.880;2023-07-22T12:16:38;4.00;;;2.55;;
77705;SDS011;66874;45.274;5.880;2023-07-22T12:19:06;2.63;;;2.13;;
77705;SDS011;66874;45.274;5.880;2023-07-22T12:21:32;3.47;;;2.30;;
77705;SDS011;66874;45.274;5.880;2023-07-22T12:23:57;3.50;;;2.60;;
77705;SDS011;66874;45.274;5.880;2023-07-22T12:26:23;4.60;;;1.93;;
77705;SDS011;66874;45.274;5.880;2023-07-22T12:28:48;2.40;;;2.13;;
77705;SDS011;66874;45.274;5.880;2023-07-22T12:31:14;2.27;;;2.07;;
77705;SDS011;66874;45.274;5.880;2023-07-22T12:33:39;3.47;;;2.30;;
77705;SDS011;66874;45.274;5.880;2023-07-22T12:36:05;3.50;;;2.40;;
77705;SDS011;66874;45.274;5.880;2023-07-22T12:38:30;3.03;;;2.73;;
77705;SDS011;66874;45.274;5.880;2023-07-22T12:40:56;2.88;;;2.60;;
77705;SDS011;66874;45.274;5.880;2023-07-22T12:43:22;4.27;;;2.47;;
77705;SDS011;66874;45.274;5.880;2023-07-22T12:45:47;2.97;;;2.23;;
77705;SDS011;66874;45.274;5.880;2023-07-22T12:48:13;2.80;;;2.30;;
77705;SDS011;66874;45.274;5.880;2023-07-22T12:50:38;3.37;;;2.10;;
77705;SDS011;66874;45.274;5.880;2023-07-22T12:53:03;2.30;;;2.03;;
77705;SDS011;66874;45.274;5.880;2023-07-22T12:55:29;3.00;;;2.60;;
77705;SDS011;66874;45.274;5.880;2023-07-22T12:57:54;2.23;;;1.93;;
77705;SDS011;66874;45.274;5.880;2023-07-22T13:00:20;4.10;;;2.67;;
77705;SDS011;66874;45.274;5.880;2023-07-22T13:02:46;4.18;;;2.50;;
77705;SDS011;66874;45.274;5.880;2023-07-22T13:05:11;4.28;;;2.10;;
77705;SDS011;66874;45.274;5.880;2023-07-22T13:07:37;4.20;;;2.87;;
77705;SDS011;66874;45.274;5.880;2023-07-22T13:10:02;3.23;;;2.30;;
77705;SDS011;66874;45.274;5.880;2023-07-22T13:12:31;7.15;;;2.88;;
77705;SDS011;66874;45.274;5.880;2023-07-22T13:14:57;4.35;;;2.80;;
77705;SDS011;66874;45.274;5.880;2023-07-22T13:17:23;4.37;;;2.40;;
77705;SDS011;66874;45.274;5.880;2023-07-22T13:19:48;3.73;;;2.43;;
77705;SDS011;66874;45.274;5.880;2023-07-22T13:22:13;3.00;;;2.60;;
77705;SDS011;66874;45.274;5.880;2023-07-22T13:24:39;4.07;;;2.83;;
77705;SDS011;66874;45.274;5.880;2023-07-22T13:27:04;3.03;;;2.73;;
77705;SDS011;66874;45.274;5.880;2023-07-22T13:29:30;3.17;;;2.83;;
77705;SDS011;66874;45.274;5.880;2023-07-22T13:31:55;4.03;;;2.70;;
77705;SDS011;66874;45.274;5.880;2023-07-22T13:34:21;3.60;;;2.60;;
77705;SDS011;66874;45.274;5.880;2023-07-22T13:36:46;3.87;;;3.07;;
77705;SDS011;66874;45.274;5.880;2023-07-22T13:39:12;3.27;;;2.50;;
77705;SDS011;66874;45.274;5.880;2023-07-22T13:41:37;5.40;;;3.20;;
77705;SDS011;66874;45.274;5.880;2023-07-22T13:44:03;4.27;;;3.07;;
77705;SDS011;66874;45.274;5.880;2023-07-22T13:46:28;3.70;;;2.70;;
77705;SDS011;66874;45.274;5.880;2023-07-22T13:48:53;5.90;;;3.67;;
77705;SDS011;66874;45.274;5.880;2023-07-22T13:51:19;3.80;;;2.80;;
77705;SDS011;66874;45.274;5.880;2023-07-22T13:53:44;4.10;;;2.97;;
77705;SDS011;66874;45.274;5.880;2023-07-22T13:56:10;4.33;;;3.00;;
77705;SDS011;66874;45.274;5.880;2023-07-22T13:58:35;5.10;;;3.23;;
77705;SDS011;66874;45.274;5.880;2023-07-22T14:01:00;4.43;;;2.90;;
77705;SDS011;66874;45.274;5.880;2023-07-22T14:03:26;3.90;;;3.30;;
77705;SDS011;66874;45.274;5.880;2023-07-22T14:05:51;3.57;;;3.10;;
77705;SDS011;66874;45.274;5.880;2023-07-22T14:08:16;3.97;;;3.20;;
77705;SDS011;66874;45.274;5.880;2023-07-22T14:10:42;5.17;;;2.83;;
77705;SDS011;66874;45.274;5.880;2023-07-22T14:13:07;3.77;;;2.70;;
77705;SDS011;66874;45.274;5.880;2023-07-22T14:15:32;3.23;;;2.63;;
77705;SDS011;66874;45.274;5.880;2023-07-22T14:17:58;4.00;;;2.33;;
77705;SDS011;66874;45.274;5.880;2023-07-22T14:20:23;2.93;;;2.53;;
77705;SDS011;66874;45.274;5.880;2023-07-22T14:22:49;4.07;;;2.60;;
77705;SDS011;66874;45.274;5.880;2023-07-22T14:25:15;2.92;;;2.53;;
77705;SDS011;66874;45.274;5.880;2023-07-22T14:27:41;3.67;;;3.25;;
77705;SDS011;66874;45.274;5.880;2023-07-22T14:30:07;3.23;;;2.93;;
77705;SDS011;66874;45.274;5.880;2023-07-22T14:32:33;3.47;;;2.83;;
77705;SDS011;66874;45.274;5.880;2023-07-22T14:34:58;3.30;;;2.90;;
77705;SDS011;66874;45.274;5.880;2023-07-22T14:37:24;4.13;;;3.00;;
77705;SDS011;66874;45.274;5.880;2023-07-22T14:39:49;4.30;;;3.00;;
77705;SDS011;66874;45.274;5.880;2023-07-22T14:42:15;6.53;;;2.90;;
77705;SDS011;66874;45.274;5.880;2023-07-22T14:44:40;4.33;;;3.40;;
77705;SDS011;66874;45.274;5.880;2023-07-22T14:47:06;4.17;;;2.80;;
77705;SDS011;66874;45.274;5.880;2023-07-22T14:49:31;4.00;;;2.40;;
77705;SDS011;66874;45.274;5.880;2023-07-22T14:51:56;4.87;;;3.20;;
77705;SDS011;66874;45.274;5.880;2023-07-22T14:54:22;4.33;;;2.57;;
77705;SDS011;66874;45.274;5.880;2023-07-22T14:56:47;4.67;;;3.10;;
77705;SDS011;66874;45.274;5.880;2023-07-22T14:59:14;5.80;;;3.47;;